createdAt,value
2023-01-27T00:00:26.681Z,90.11
2023-01-27T00:02:53.513Z,90.22
2023-01-27T00:05:20.349Z,90.54
2023-01-27T00:07:47.212Z,89.97
2023-01-27T00:10:16.315Z,89.89
2023-01-27T00:12:53.396Z,90.18
2023-01-27T00:15:20.387Z,89.91
2023-01-27T00:17:47.179Z,89.55
2023-01-27T00:20:14.044Z,88.41
2023-01-27T00:22:50.418Z,88.53
2023-01-27T00:25:17.888Z,88.40
2023-01-27T00:27:44.830Z,88.77
2023-01-27T00:30:12.606Z,88.74
2023-01-27T00:32:49.357Z,87.02
2023-01-27T00:35:17.579Z,87.31
2023-01-27T00:37:48.321Z,86.93
2023-01-27T00:40:16.465Z,87.01
2023-01-27T00:42:43.848Z,86.10
2023-01-27T00:45:20.797Z,87.01
2023-01-27T00:47:48.947Z,86.86
2023-01-27T00:50:17.076Z,86.03
2023-01-27T00:52:44.333Z,87.02
2023-01-27T00:55:11.512Z,87.48
2023-01-27T00:57:38.782Z,87.12
2023-01-27T01:00:06.338Z,86.10
2023-01-27T01:02:33.599Z,86.50
2023-01-27T01:05:01.121Z,85.79
2023-01-27T01:07:27.912Z,85.30
2023-01-27T01:09:54.661Z,85.64
2023-01-27T01:12:21.525Z,85.38
2023-01-27T01:14:48.473Z,85.88
2023-01-27T01:17:15.253Z,85.40
2023-01-27T01:19:41.994Z,85.12
2023-01-27T01:22:08.917Z,85.14
2023-01-27T01:24:35.733Z,85.07
2023-01-27T01:27:02.540Z,85.12
2023-01-27T01:29:29.337Z,85.15
2023-01-27T01:31:56.144Z,85.63
2023-01-27T01:34:22.942Z,86.44
2023-01-27T01:36:49.776Z,85.01
2023-01-27T01:39:16.691Z,85.05
2023-01-27T01:41:43.648Z,85.81
2023-01-27T01:44:19.804Z,85.65
2023-01-27T01:46:46.737Z,85.77
2023-01-27T01:49:18.723Z,85.76
2023-01-27T01:51:48.363Z,85.71
2023-01-27T01:54:18.136Z,85.71
2023-01-27T01:56:48.097Z,85.67
2023-01-27T01:59:18.202Z,86.23
2023-01-27T02:01:45.372Z,86.02
2023-01-27T02:04:15.774Z,86.19
2023-01-27T02:06:47.888Z,86.40
2023-01-27T02:09:14.828Z,85.82
2023-01-27T02:11:41.573Z,86.33
2023-01-27T02:14:08.502Z,86.36
2023-01-27T02:16:35.696Z,86.37
2023-01-27T02:19:03.277Z,86.20
2023-01-27T02:21:30.331Z,86.08
2023-01-27T02:23:59.434Z,86.14
2023-01-27T02:26:32.162Z,86.68
2023-01-27T02:29:01.255Z,86.58
2023-01-27T02:31:28.171Z,87.01
2023-01-27T02:33:58.500Z,87.27
2023-01-27T02:36:27.452Z,86.74
2023-01-27T02:38:55.742Z,86.98
2023-01-27T02:41:29.722Z,86.47
2023-01-27T02:43:56.489Z,86.52
2023-01-27T02:46:23.264Z,86.55
2023-01-27T02:48:50.108Z,87.11
2023-01-27T02:51:16.903Z,88.00
2023-01-27T02:53:43.757Z,87.99
2023-01-27T02:56:10.936Z,87.28
2023-01-27T02:58:37.773Z,87.29
2023-01-27T03:01:04.774Z,86.67
2023-01-27T03:03:31.919Z,86.66
2023-01-27T03:05:58.687Z,87.13
2023-01-27T03:08:25.509Z,87.11
2023-01-27T03:10:53.286Z,87.13
2023-01-27T03:13:22.646Z,87.59
2023-01-27T03:15:59.809Z,87.62
2023-01-27T03:18:26.720Z,87.81
2023-01-27T03:21:00.365Z,88.29
2023-01-27T03:23:28.002Z,88.10
2023-01-27T03:25:55.035Z,88.20
2023-01-27T03:28:22.022Z,88.76
2023-01-27T03:30:48.899Z,88.41
2023-01-27T03:33:18.156Z,88.61
2023-01-27T03:35:48.785Z,88.60
2023-01-27T03:38:26.721Z,88.27
2023-01-27T03:41:03.004Z,88.72
2023-01-27T03:43:39.475Z,89.30
2023-01-27T03:46:15.779Z,88.79
2023-01-27T03:48:42.767Z,88.57
2023-01-27T03:51:10.872Z,88.50
2023-01-27T03:53:37.881Z,88.85
2023-01-27T03:56:06.212Z,89.22
2023-01-27T03:58:34.298Z,89.53
2023-01-27T04:01:02.552Z,90.37
2023-01-27T04:03:40.786Z,90.51
2023-01-27T04:06:18.667Z,90.05
2023-01-27T04:08:45.572Z,90.04
2023-01-27T04:11:22.221Z,90.16
2023-01-27T04:13:49.226Z,90.52
2023-01-27T04:16:18.121Z,90.71
2023-01-27T04:18:48.069Z,89.58
2023-01-27T04:21:16.097Z,89.91
2023-01-27T04:23:42.786Z,90.33
2023-01-27T04:26:09.563Z,90.71
2023-01-27T04:28:44.331Z,91.21
2023-01-27T04:31:11.888Z,91.74
2023-01-27T04:33:38.746Z,92.44
2023-01-27T04:36:05.850Z,92.84
2023-01-27T04:38:33.274Z,92.84
2023-01-27T04:41:00.131Z,92.99
2023-01-27T04:43:26.968Z,92.76
2023-01-27T04:45:53.896Z,93.10
2023-01-27T04:48:20.681Z,92.64
2023-01-27T04:50:47.585Z,92.37
2023-01-27T04:53:14.282Z,93.32
2023-01-27T04:55:42.418Z,93.35
2023-01-27T04:58:10.372Z,93.40
2023-01-27T05:00:37.161Z,93.38
2023-01-27T05:03:06.303Z,93.89
2023-01-27T05:05:33.257Z,94.56
2023-01-27T05:08:08.374Z,94.87
2023-01-27T05:10:35.229Z,94.37
2023-01-27T05:13:02.493Z,94.04
2023-01-27T05:15:29.759Z,93.53
2023-01-27T05:17:56.461Z,93.86
2023-01-27T05:20:23.356Z,93.91
2023-01-27T05:22:51.109Z,94.46
2023-01-27T05:25:17.889Z,94.92
2023-01-27T05:27:44.836Z,94.39
2023-01-27T05:30:12.151Z,93.92
2023-01-27T05:32:38.944Z,93.87
2023-01-27T05:35:06.157Z,93.42
2023-01-27T05:37:33.015Z,92.67
2023-01-27T05:39:59.807Z,92.09
2023-01-27T05:42:26.617Z,91.97
2023-01-27T05:44:56.157Z,92.14
2023-01-27T05:47:23.007Z,92.28
2023-01-27T05:49:49.789Z,91.42
2023-01-27T05:52:16.528Z,90.72
2023-01-27T05:54:43.291Z,91.21
2023-01-27T05:57:10.058Z,91.46
2023-01-27T05:59:36.961Z,91.52
2023-01-27T06:02:03.771Z,91.53
2023-01-27T06:04:30.526Z,91.67
2023-01-27T06:06:57.236Z,91.57
2023-01-27T06:09:24.067Z,91.02
2023-01-27T06:11:50.968Z,90.07
2023-01-27T06:14:17.726Z,90.31
2023-01-27T06:16:47.610Z,91.02
2023-01-27T06:19:14.501Z,90.40
2023-01-27T06:21:41.333Z,89.11
2023-01-27T06:24:08.388Z,89.63
2023-01-27T06:26:35.296Z,89.32
2023-01-27T06:29:02.496Z,89.83
2023-01-27T06:31:29.387Z,89.63
2023-01-27T06:33:56.411Z,88.22
2023-01-27T06:36:23.402Z,87.57
2023-01-27T06:38:50.391Z,87.99
2023-01-27T06:41:17.265Z,87.51
2023-01-27T06:43:44.411Z,86.38
2023-01-27T06:46:11.201Z,86.74
2023-01-27T06:48:38.363Z,85.58
2023-01-27T06:51:05.383Z,85.75
2023-01-27T06:53:32.953Z,85.23
2023-01-27T06:56:01.118Z,85.18
2023-01-27T06:58:28.246Z,85.92
2023-01-27T07:00:55.293Z,86.64
2023-01-27T07:03:22.089Z,85.34
2023-01-27T07:05:48.912Z,86.36
2023-01-27T07:08:15.743Z,84.85
2023-01-27T07:10:42.542Z,84.55
2023-01-27T07:13:11.966Z,84.76
2023-01-27T07:15:39.122Z,85.16
2023-01-27T07:18:06.111Z,84.58
2023-01-27T07:20:33.375Z,84.85
2023-01-27T07:23:00.815Z,85.64
2023-01-27T07:25:28.122Z,85.52
2023-01-27T07:27:57.066Z,86.44
2023-01-27T07:30:23.981Z,86.10
2023-01-27T07:32:50.874Z,86.26
2023-01-27T07:35:18.236Z,87.27
2023-01-27T07:37:45.068Z,85.75
2023-01-27T07:40:13.925Z,84.90
2023-01-27T07:42:41.372Z,84.67
2023-01-27T07:45:08.860Z,84.99
2023-01-27T07:47:35.645Z,83.89
2023-01-27T07:50:02.547Z,82.76
2023-01-27T07:52:29.343Z,82.74
2023-01-27T07:54:56.108Z,83.44
2023-01-27T07:57:22.861Z,83.17
2023-01-27T07:59:49.704Z,82.72
2023-01-27T08:02:16.665Z,83.31
2023-01-27T08:04:52.428Z,82.74
2023-01-27T08:07:19.625Z,83.62
2023-01-27T08:09:46.551Z,83.76
2023-01-27T08:12:16.341Z,83.67
2023-01-27T08:14:43.363Z,84.15
2023-01-27T08:17:10.224Z,84.75
2023-01-27T08:19:37.165Z,84.75
2023-01-27T08:22:03.989Z,85.27
2023-01-27T08:24:30.853Z,85.10
2023-01-27T08:26:57.658Z,87.78
2023-01-27T08:29:25.101Z,86.36
2023-01-27T08:31:51.918Z,84.83
2023-01-27T08:34:18.911Z,82.51
2023-01-27T08:36:45.745Z,82.58
2023-01-27T08:39:12.981Z,82.77
2023-01-27T08:41:39.878Z,83.74
2023-01-27T08:44:07.391Z,83.57
2023-01-27T08:46:34.540Z,83.31
2023-01-27T08:49:01.588Z,83.49
2023-01-27T08:51:31.917Z,83.93
2023-01-27T08:53:58.732Z,82.32
2023-01-27T08:56:25.743Z,83.38
2023-01-27T08:58:52.756Z,83.67
2023-01-27T09:01:20.756Z,83.07
2023-01-27T09:03:48.242Z,82.87
2023-01-27T09:06:16.319Z,83.00
2023-01-27T09:08:43.720Z,82.17
2023-01-27T09:11:12.847Z,82.61
2023-01-27T09:13:39.735Z,82.66
2023-01-27T09:16:06.932Z,82.56
2023-01-27T09:18:34.367Z,80.04
2023-01-27T09:21:05.396Z,81.07
2023-01-27T09:23:32.596Z,81.58
2023-01-27T09:25:59.760Z,80.30
2023-01-27T09:28:26.636Z,80.55
2023-01-27T09:30:56.978Z,79.99
2023-01-27T09:33:24.118Z,79.85
2023-01-27T09:35:56.707Z,79.59
2023-01-27T09:38:25.158Z,79.49
2023-01-27T09:41:01.682Z,78.41
2023-01-27T09:43:39.440Z,78.04
2023-01-27T09:46:06.589Z,77.41
2023-01-27T09:48:42.676Z,77.05
2023-01-27T09:51:18.666Z,77.43
2023-01-27T09:53:45.696Z,76.93
2023-01-27T09:56:23.097Z,76.92
2023-01-27T09:58:50.256Z,76.73
2023-01-27T10:01:23.107Z,76.13
2023-01-27T10:03:59.651Z,75.36
2023-01-27T10:06:34.753Z,75.74
2023-01-27T10:09:02.044Z,76.37
2023-01-27T10:11:38.758Z,76.12
2023-01-27T10:14:06.843Z,74.69
2023-01-27T10:16:33.961Z,74.22
2023-01-27T10:19:14.705Z,74.62
2023-01-27T10:21:51.620Z,75.11
2023-01-27T10:24:33.361Z,72.55
2023-01-27T10:27:08.739Z,73.85
2023-01-27T10:29:45.641Z,72.59
2023-01-27T10:32:21.740Z,72.66
2023-01-27T10:34:57.766Z,72.44
2023-01-27T10:37:25.873Z,72.20
2023-01-27T10:40:02.642Z,72.54
2023-01-27T10:42:32.797Z,73.99
2023-01-27T10:45:09.161Z,73.80
2023-01-27T10:47:45.602Z,72.74
2023-01-27T10:50:14.923Z,72.38
2023-01-27T10:52:46.741Z,72.05
2023-01-27T10:55:22.982Z,71.88
2023-01-27T10:57:55.463Z,71.14
2023-01-27T11:00:57.772Z,70.98
2023-01-27T11:03:23.580Z,70.21
2023-01-27T11:05:53.023Z,70.76
2023-01-27T11:08:22.540Z,70.94
2023-01-27T11:11:01.618Z,71.07
2023-01-27T11:13:31.177Z,70.16
2023-01-27T11:15:59.121Z,70.07
2023-01-27T11:18:29.111Z,69.36
2023-01-27T11:20:59.877Z,69.66
2023-01-27T11:23:28.523Z,69.94
2023-01-27T11:26:04.635Z,68.06
2023-01-27T11:28:42.022Z,69.00
2023-01-27T11:31:18.718Z,67.93
2023-01-27T11:33:45.836Z,68.22
2023-01-27T11:36:12.960Z,68.48
2023-01-27T11:38:39.941Z,67.59
2023-01-27T11:41:07.017Z,67.32
2023-01-27T11:43:35.216Z,67.13
2023-01-27T11:46:03.454Z,66.72
2023-01-27T11:48:37.478Z,67.35
2023-01-27T11:51:04.841Z,67.66
2023-01-27T11:53:39.855Z,67.01
2023-01-27T11:56:10.642Z,68.04
2023-01-27T11:58:41.330Z,68.43
2023-01-27T12:01:16.639Z,67.18
2023-01-27T12:03:44.330Z,66.46
2023-01-27T12:06:15.824Z,67.51
2023-01-27T12:08:45.254Z,67.47
2023-01-27T12:11:21.718Z,67.26
2023-01-27T12:13:50.587Z,67.67
2023-01-27T12:16:17.986Z,68.84
2023-01-27T12:18:50.207Z,67.02
2023-01-27T12:21:18.039Z,67.28
2023-01-27T12:23:50.249Z,65.85
2023-01-27T12:26:29.044Z,66.42
2023-01-27T12:28:55.961Z,67.69
2023-01-27T12:31:27.244Z,66.92
2023-01-27T12:34:03.643Z,67.52
2023-01-27T12:36:37.597Z,66.44
2023-01-27T12:39:04.817Z,65.99
2023-01-27T12:41:33.521Z,65.50
2023-01-27T12:44:10.296Z,66.44
2023-01-27T12:46:40.387Z,64.96
2023-01-27T12:49:10.678Z,65.75
2023-01-27T12:51:41.525Z,65.65
2023-01-27T12:54:15.849Z,66.48
2023-01-27T12:56:43.259Z,65.39
2023-01-27T12:59:14.843Z,65.24
2023-01-27T13:01:42.191Z,64.83
2023-01-27T13:04:12.801Z,65.34
2023-01-27T13:06:43.640Z,66.25
2023-01-27T13:09:23.068Z,67.31
2023-01-27T13:11:50.155Z,66.04
2023-01-27T13:14:18.103Z,65.63
2023-01-27T13:16:54.433Z,65.77
2023-01-27T13:19:22.917Z,66.95
2023-01-27T13:21:51.779Z,66.67
2023-01-27T13:24:33.621Z,65.46
2023-01-27T13:27:01.647Z,66.38
2023-01-27T13:29:32.351Z,66.01
2023-01-27T13:32:06.643Z,66.71
2023-01-27T13:34:34.836Z,67.40
2023-01-27T13:37:06.577Z,66.80
2023-01-27T13:39:34.919Z,66.51
2023-01-27T13:42:10.653Z,66.33
2023-01-27T13:44:38.898Z,66.95
2023-01-27T13:47:11.496Z,65.44
2023-01-27T13:49:41.447Z,65.47
2023-01-27T13:52:08.483Z,66.09
2023-01-27T13:54:35.438Z,66.50
2023-01-27T13:57:11.694Z,66.65
2023-01-27T13:59:47.965Z,66.05
2023-01-27T14:02:28.362Z,64.89
2023-01-27T14:05:04.674Z,65.26
2023-01-27T14:07:39.621Z,64.90
2023-01-27T14:10:15.929Z,66.75
2023-01-27T14:12:49.156Z,66.12
2023-01-27T14:15:26.656Z,65.26
2023-01-27T14:17:55.129Z,65.84
2023-01-27T14:20:30.762Z,66.07
2023-01-27T14:23:05.069Z,66.54
2023-01-27T14:25:35.251Z,66.39
2023-01-27T14:28:10.831Z,66.10
2023-01-27T14:30:48.387Z,66.14
2023-01-27T14:33:21.625Z,67.11
2023-01-27T14:35:54.583Z,67.16
2023-01-27T14:38:31.421Z,66.00
2023-01-27T14:40:59.471Z,67.57
2023-01-27T14:43:26.882Z,67.33
2023-01-27T14:46:00.187Z,66.92
2023-01-27T14:48:28.402Z,67.18
2023-01-27T14:50:58.845Z,66.81
2023-01-27T14:53:27.188Z,66.90
2023-01-27T14:56:03.843Z,67.01
2023-01-27T14:58:37.724Z,66.09
2023-01-27T15:01:11.552Z,65.85
2023-01-27T15:03:39.727Z,66.24
2023-01-27T15:06:10.016Z,66.41
2023-01-27T15:08:45.278Z,66.36
2023-01-27T15:11:12.364Z,66.35
2023-01-27T15:13:54.711Z,66.65
2023-01-27T15:16:21.969Z,66.03
2023-01-27T15:18:49.198Z,67.04
2023-01-27T15:21:25.588Z,67.68
2023-01-27T15:23:52.780Z,65.55
2023-01-27T15:26:22.770Z,66.26
2023-01-27T15:28:49.945Z,66.66
2023-01-27T15:31:17.376Z,67.32
2023-01-27T15:33:53.610Z,64.72
2023-01-27T15:36:27.885Z,66.01
2023-01-27T15:39:04.663Z,65.64
2023-01-27T15:41:31.624Z,65.41
2023-01-27T15:44:07.858Z,65.15
2023-01-27T15:46:36.583Z,65.83
2023-01-27T15:49:05.622Z,65.81
2023-01-27T15:51:35.970Z,66.57
2023-01-27T15:54:03.416Z,67.18
2023-01-27T15:56:39.839Z,67.83
2023-01-27T15:59:08.425Z,67.81
2023-01-27T16:01:36.717Z,67.60
2023-01-27T16:04:10.878Z,67.66
2023-01-27T16:06:45.683Z,67.80
2023-01-27T16:09:17.369Z,68.13
2023-01-27T16:11:57.650Z,68.73
2023-01-27T16:14:24.694Z,68.13
2023-01-27T16:16:52.781Z,68.04
2023-01-27T16:19:25.625Z,67.82
2023-01-27T16:21:55.812Z,67.94
2023-01-27T16:24:27.223Z,68.84
2023-01-27T16:26:57.317Z,68.85
2023-01-27T16:29:34.052Z,67.68
2023-01-27T16:32:04.734Z,67.62
2023-01-27T16:34:35.491Z,67.52
2023-01-27T16:37:05.239Z,68.44
2023-01-27T16:39:35.477Z,68.55
2023-01-27T16:42:03.465Z,68.87
2023-01-27T16:44:39.711Z,69.39
2023-01-27T16:47:16.687Z,70.45
2023-01-27T16:49:44.496Z,70.81
2023-01-27T16:52:17.838Z,69.98
2023-01-27T16:54:45.918Z,69.53
2023-01-27T16:57:22.601Z,70.40
2023-01-27T16:59:50.984Z,70.88
2023-01-27T17:02:22.132Z,70.96
2023-01-27T17:04:50.810Z,70.70
2023-01-27T17:07:18.811Z,70.73
2023-01-27T17:09:54.597Z,70.97
2023-01-27T17:12:30.743Z,71.14
2023-01-27T17:14:59.808Z,71.61
2023-01-27T17:17:28.027Z,71.47
2023-01-27T17:20:00.483Z,71.32
2023-01-27T17:22:35.208Z,71.49
2023-01-27T17:25:04.563Z,72.22
2023-01-27T17:27:34.536Z,72.04
2023-01-27T17:30:03.350Z,72.41
2023-01-27T17:32:37.361Z,72.32
2023-01-27T17:35:07.162Z,72.55
2023-01-27T17:37:41.176Z,72.51
2023-01-27T17:40:14.018Z,72.41
2023-01-27T17:42:41.539Z,72.72
2023-01-27T17:45:17.700Z,72.73
2023-01-27T17:47:46.159Z,72.61
2023-01-27T17:50:16.528Z,72.76
2023-01-27T17:52:52.220Z,73.57
2023-01-27T17:55:21.541Z,72.99
2023-01-27T17:57:50.422Z,72.93
2023-01-27T18:00:19.001Z,73.08
2023-01-27T18:02:52.017Z,73.18
2023-01-27T18:05:21.338Z,72.46
2023-01-27T18:07:48.638Z,72.87
2023-01-27T18:10:24.248Z,72.50
2023-01-27T18:12:51.745Z,72.74
2023-01-27T18:15:27.743Z,72.52
2023-01-27T18:18:02.682Z,72.74
2023-01-27T18:20:31.700Z,72.87
2023-01-27T18:22:58.700Z,72.74
2023-01-27T18:25:25.783Z,73.03
2023-01-27T18:27:54.016Z,72.93
2023-01-27T18:30:21.930Z,73.25
2023-01-27T18:32:50.927Z,72.71
2023-01-27T18:35:27.719Z,73.03
2023-01-27T18:37:54.892Z,73.18
2023-01-27T18:40:24.667Z,73.82
2023-01-27T18:42:53.758Z,75.62
2023-01-27T18:45:20.783Z,75.43
2023-01-27T18:47:47.981Z,74.37
2023-01-27T18:50:21.178Z,75.14
2023-01-27T18:52:48.725Z,75.32
2023-01-27T18:55:18.854Z,74.32
2023-01-27T18:57:46.549Z,73.96
2023-01-27T19:00:18.107Z,74.55
2023-01-27T19:02:47.120Z,75.26
2023-01-27T19:05:16.099Z,74.98
2023-01-27T19:07:43.258Z,75.29
2023-01-27T19:10:19.521Z,75.12
2023-01-27T19:12:46.639Z,76.00
2023-01-27T19:15:14.292Z,75.92
2023-01-27T19:17:41.903Z,75.80
2023-01-27T19:20:13.083Z,75.98
2023-01-27T19:22:40.037Z,76.21
2023-01-27T19:25:07.172Z,76.93
2023-01-27T19:27:35.057Z,77.13
2023-01-27T19:30:19.780Z,76.62
2023-01-27T19:32:46.721Z,76.52
2023-01-27T19:35:14.374Z,76.36
2023-01-27T19:37:41.744Z,76.77
2023-01-27T19:40:16.152Z,76.55
2023-01-27T19:42:42.968Z,76.66
2023-01-27T19:45:11.291Z,77.26
2023-01-27T19:47:38.299Z,76.51
2023-01-27T19:50:05.727Z,78.05
2023-01-27T19:52:32.838Z,78.80
2023-01-27T19:54:59.781Z,78.59
2023-01-27T19:57:26.618Z,78.88
2023-01-27T19:59:53.523Z,77.77
2023-01-27T20:02:20.975Z,77.93
2023-01-27T20:04:47.821Z,78.43
2023-01-27T20:07:14.677Z,79.35
2023-01-27T20:09:41.494Z,78.82
2023-01-27T20:12:15.070Z,78.30
2023-01-27T20:14:43.302Z,78.72
2023-01-27T20:17:10.356Z,78.35
2023-01-27T20:19:37.221Z,77.73
2023-01-27T20:22:04.117Z,77.72
2023-01-27T20:24:30.977Z,78.06
2023-01-27T20:26:58.918Z,78.59
2023-01-27T20:29:25.839Z,79.38
2023-01-27T20:31:52.896Z,79.77
2023-01-27T20:34:19.897Z,79.12
2023-01-27T20:36:46.762Z,79.28
2023-01-27T20:39:13.835Z,79.32
2023-01-27T20:41:41.761Z,79.39
2023-01-27T20:44:11.365Z,80.05
2023-01-27T20:46:38.327Z,79.38
2023-01-27T20:49:05.181Z,79.72
2023-01-27T20:51:32.180Z,79.86
2023-01-27T20:54:01.017Z,80.10
2023-01-27T20:56:27.887Z,79.91
2023-01-27T20:58:54.817Z,79.78
2023-01-27T21:01:22.631Z,81.17
2023-01-27T21:03:50.851Z,81.44
2023-01-27T21:06:19.751Z,81.78
2023-01-27T21:08:48.046Z,80.57
2023-01-27T21:11:16.320Z,79.53
2023-01-27T21:13:43.607Z,79.95
2023-01-27T21:16:10.478Z,80.30
2023-01-27T21:18:37.691Z,80.66
2023-01-27T21:21:05.058Z,80.99
2023-01-27T21:23:33.261Z,80.88
2023-01-27T21:26:04.860Z,80.35
2023-01-27T21:28:33.431Z,81.32
2023-01-27T21:31:10.636Z,81.00
2023-01-27T21:33:38.722Z,81.18
2023-01-27T21:36:06.640Z,81.89
2023-01-27T21:38:34.670Z,81.00
2023-01-27T21:41:06.106Z,80.83
2023-01-27T21:43:42.396Z,80.80
2023-01-27T21:46:09.300Z,81.10
2023-01-27T21:48:36.302Z,80.97
2023-01-27T21:51:03.108Z,81.11
2023-01-27T21:53:30.062Z,81.18
2023-01-27T21:55:56.930Z,81.83
2023-01-27T21:58:24.302Z,82.79
2023-01-27T22:00:51.157Z,83.01
2023-01-27T22:03:18.032Z,82.15
2023-01-27T22:05:45.266Z,81.89
2023-01-27T22:08:12.263Z,83.16
2023-01-27T22:10:39.194Z,82.42
2023-01-27T22:13:06.297Z,81.84
2023-01-27T22:15:33.300Z,81.94
2023-01-27T22:18:00.428Z,81.32
2023-01-27T22:20:27.881Z,80.84
2023-01-27T22:22:54.957Z,81.42
2023-01-27T22:25:21.761Z,81.15
2023-01-27T22:27:48.810Z,81.37
2023-01-27T22:30:16.875Z,81.59
2023-01-27T22:32:44.026Z,82.16
2023-01-27T22:35:11.143Z,81.43
2023-01-27T22:37:38.140Z,82.24
2023-01-27T22:40:06.739Z,80.44
2023-01-27T22:42:33.647Z,79.93
2023-01-27T22:45:00.438Z,79.84
2023-01-27T22:47:27.237Z,80.40
2023-01-27T22:49:54.283Z,79.33
2023-01-27T22:52:21.199Z,79.18
2023-01-27T22:54:48.362Z,79.14
2023-01-27T22:57:15.239Z,79.77
2023-01-27T22:59:42.022Z,78.93
2023-01-27T23:02:08.908Z,79.42
2023-01-27T23:04:35.905Z,79.19
2023-01-27T23:07:02.685Z,78.27
2023-01-27T23:09:33.444Z,78.79
2023-01-27T23:12:00.286Z,77.70
2023-01-27T23:14:27.091Z,79.89
2023-01-27T23:16:53.942Z,78.86
2023-01-27T23:19:22.272Z,78.92
2023-01-27T23:21:49.074Z,79.16
2023-01-27T23:24:16.297Z,79.50
2023-01-27T23:26:43.178Z,80.12
2023-01-27T23:29:23.046Z,79.55
2023-01-27T23:31:51.078Z,78.72
2023-01-27T23:34:17.964Z,79.00
2023-01-27T23:36:44.708Z,79.99
2023-01-27T23:39:14.269Z,77.99
2023-01-27T23:41:41.074Z,77.78
2023-01-27T23:44:10.382Z,79.28
2023-01-27T23:46:37.107Z,78.11
2023-01-27T23:49:03.974Z,77.16
2023-01-27T23:51:30.787Z,75.97
2023-01-27T23:53:57.559Z,75.75
2023-01-27T23:56:24.398Z,76.20
2023-01-27T23:58:51.154Z,76.69
